Time;durP1;ratioP1;P1;durP2;ratioP2;P2;SDS_P1;SDS_P2;PMS_P1;PMS_P2;Temp;Humidity;BMP_temperature;BMP_pressure;BME280_temperature;BME280_humidity;BME280_pressure;Samples;Min_cycle;Max_cycle;Signal;HPM_P1;HPM_P2
2021/12/16 00:01:50;;;;;;;31.07;22.37;;;12.20;99.90;;;;;;4969652;28;20203;-24
2021/12/16 00:29:53;;;;;;;29.10;21.20;;;12.20;99.90;;;;;;4986170;28;20213;-25
2021/12/16 00:34:16;;;;;;;31.63;22.03;;;12.20;99.90;;;;;;4969338;28;20298;-25
2021/12/16 00:36:46;;;;;;;33.47;21.83;;;12.20;99.90;;;;;;4978443;28;20234;-25
2021/12/16 00:39:18;;;;;;;29.43;21.53;;;12.20;99.90;;;;;;4968728;28;20237;-25
2021/12/16 00:41:55;;;;;;;28.27;21.10;;;12.20;99.90;;;;;;4980089;28;20206;-25
2021/12/16 00:45:01;;;;;;;29.53;21.17;;;12.20;99.90;;;;;;4988386;28;20718;-25
2021/12/16 00:47:47;;;;;;;32.53;21.60;;;12.20;99.90;;;;;;4985634;28;20317;-25
2021/12/16 00:58:19;;;;;;;29.90;21.77;;;12.20;99.90;;;;;;4973399;28;20206;-25
2021/12/16 01:00:57;;;;;;;30.50;23.20;;;12.20;99.90;;;;;;4969648;28;20199;-25
2021/12/16 01:03:41;;;;;;;28.90;21.43;;;12.20;99.90;;;;;;4969099;28;20199;-25
2021/12/16 01:53:01;;;;;;;32.70;22.37;;;12.10;99.90;;;;;;4990000;28;20257;-25
2021/12/16 01:55:34;;;;;;;31.17;23.27;;;12.10;99.90;;;;;;4987541;28;20210;-25
2021/12/16 01:58:36;;;;;;;31.57;22.23;;;12.10;99.90;;;;;;4991899;28;20744;-25
2021/12/16 02:01:29;;;;;;;32.87;22.13;;;12.10;99.90;;;;;;4986782;28;20211;-25
2021/12/16 02:04:27;;;;;;;31.57;22.30;;;12.10;99.90;;;;;;4992135;28;20202;-25
2021/12/16 02:09:39;;;;;;;36.53;22.90;;;12.10;99.90;;;;;;4980752;28;20198;-25
2021/12/16 02:31:36;;;;;;;32.00;22.20;;;12.10;99.90;;;;;;4984042;28;20194;-25
2021/12/16 02:36:47;;;;;;;29.93;21.67;;;12.00;99.90;;;;;;4970709;28;20221;-25
2021/12/16 02:39:23;;;;;;;31.17;21.77;;;12.10;99.90;;;;;;4971136;28;20226;-25
2021/12/16 02:41:59;;;;;;;31.53;23.03;;;12.10;99.90;;;;;;4976565;28;20653;-25
2021/12/16 02:44:36;;;;;;;31.33;23.87;;;12.10;99.90;;;;;;4971583;28;20658;-25
2021/12/16 02:49:54;;;;;;;35.23;23.77;;;12.10;99.90;;;;;;4979132;28;20601;-25
2021/12/16 02:52:25;;;;;;;32.27;22.13;;;12.10;99.90;;;;;;4975603;28;20602;-25
2021/12/16 02:54:53;;;;;;;32.00;22.73;;;12.10;99.90;;;;;;4971364;28;20286;-25
2021/12/16 02:57:21;;;;;;;32.60;22.43;;;12.10;99.90;;;;;;4977245;28;20207;-25
2021/12/16 02:59:53;;;;;;;30.00;22.23;;;12.10;99.90;;;;;;4971114;28;20203;-25
2021/12/16 03:02:23;;;;;;;29.77;21.63;;;12.10;99.90;;;;;;4973573;28;20226;-25
2021/12/16 03:04:54;;;;;;;32.33;22.77;;;12.00;99.90;;;;;;4970632;28;20210;-25
2021/12/16 03:07:23;;;;;;;31.93;23.73;;;12.00;99.90;;;;;;4969555;28;20277;-25
2021/12/16 03:15:30;;;;;;;33.50;22.07;;;12.00;99.90;;;;;;4977094;28;20199;-25
2021/12/16 03:18:37;;;;;;;32.40;22.73;;;12.00;99.90;;;;;;4979952;28;20613;-25
2021/12/16 03:21:05;;;;;;;34.17;22.63;;;12.00;99.90;;;;;;4982082;28;20242;-25
2021/12/16 03:37:41;;;;;;;31.40;22.57;;;12.00;99.90;;;;;;4968933;28;20238;-25
2021/12/16 03:39:57;;;;;;;32.80;22.53;;;12.00;99.90;;;;;;4971132;28;20222;-25
2021/12/16 03:42:26;;;;;;;32.27;22.10;;;12.00;99.90;;;;;;4984586;28;20229;-25
2021/12/16 03:44:59;;;;;;;33.27;23.47;;;12.00;99.90;;;;;;4983964;28;20703;-25
2021/12/16 03:47:35;;;;;;;35.10;23.67;;;12.00;99.90;;;;;;4969717;28;20650;-25
2021/12/16 03:50:07;;;;;;;34.97;22.17;;;12.00;99.90;;;;;;4972195;28;20206;-25
2021/12/16 03:52:38;;;;;;;29.03;21.40;;;12.00;99.90;;;;;;4979325;28;20234;-25
2021/12/16 03:55:09;;;;;;;33.93;22.63;;;12.00;99.90;;;;;;4969744;28;20215;-25
2021/12/16 03:57:37;;;;;;;30.33;22.07;;;12.00;99.90;;;;;;4968616;28;20269;-25
2021/12/16 04:00:29;;;;;;;33.93;23.17;;;12.00;99.90;;;;;;4969643;28;20213;-25
2021/12/16 04:02:57;;;;;;;31.47;23.07;;;12.00;99.90;;;;;;4980240;28;20230;-25
2021/12/16 04:05:25;;;;;;;33.83;22.90;;;12.00;99.90;;;;;;4984358;28;20221;-25
2021/12/16 04:07:55;;;;;;;30.63;22.33;;;12.00;99.90;;;;;;4968509;28;20280;-25
2021/12/16 04:10:33;;;;;;;32.93;23.03;;;12.00;99.90;;;;;;4969673;28;20211;-26
2021/12/16 04:13:05;;;;;;;31.97;22.87;;;12.00;99.90;;;;;;4972773;28;20735;-24
2021/12/16 04:15:32;;;;;;;34.23;24.03;;;12.00;99.90;;;;;;4985391;28;20213;-25
2021/12/16 04:18:01;;;;;;;30.70;22.17;;;12.00;99.90;;;;;;4969093;28;20215;-25
2021/12/16 04:20:28;;;;;;;34.13;23.43;;;12.00;99.90;;;;;;4976373;28;20225;-25
2021/12/16 04:22:59;;;;;;;32.93;22.67;;;12.00;99.90;;;;;;4976524;28;20198;-25
2021/12/16 04:25:36;;;;;;;31.27;22.73;;;12.00;99.90;;;;;;4988206;28;20202;-25
2021/12/16 04:28:10;;;;;;;34.63;23.50;;;12.00;99.90;;;;;;4983036;28;20757;-25
2021/12/16 04:30:37;;;;;;;30.63;22.93;;;12.00;99.90;;;;;;4976113;28;20225;-25
2021/12/16 04:33:05;;;;;;;33.30;23.50;;;12.00;99.90;;;;;;4981030;28;20205;-25
2021/12/16 04:35:34;;;;;;;33.47;23.07;;;12.00;99.90;;;;;;4953642;28;20254;-25
2021/12/16 04:38:03;;;;;;;32.83;22.77;;;12.00;99.90;;;;;;4967958;28;20223;-25
2021/12/16 04:40:36;;;;;;;30.23;23.17;;;12.00;99.90;;;;;;4968755;28;20203;-25
2021/12/16 04:43:05;;;;;;;33.00;22.53;;;12.00;99.90;;;;;;4969298;28;20543;-25
2021/12/16 04:45:34;;;;;;;31.67;23.33;;;12.00;99.90;;;;;;4969888;28;20213;-25
2021/12/16 04:48:05;;;;;;;30.60;22.53;;;12.00;99.90;;;;;;4987520;28;20233;-25
2021/12/16 04:50:35;;;;;;;32.10;23.50;;;12.00;99.90;;;;;;4975845;28;20210;-25
2021/12/16 04:53:02;;;;;;;32.00;22.83;;;12.00;99.90;;;;;;4982079;28;20768;-25
2021/12/16 04:55:30;;;;;;;31.10;22.27;;;12.00;99.90;;;;;;4966839;28;20254;-25
2021/12/16 04:57:58;;;;;;;34.70;24.23;;;12.00;99.90;;;;;;4972565;28;20265;-25
2021/12/16 05:00:28;;;;;;;34.80;24.17;;;12.00;99.90;;;;;;4980667;28;20633;-25
2021/12/16 05:02:55;;;;;;;30.60;22.57;;;12.00;99.90;;;;;;4982527;28;20226;-25
2021/12/16 05:05:24;;;;;;;34.03;22.70;;;12.00;99.90;;;;;;4987022;28;20667;-25
2021/12/16 05:07:52;;;;;;;33.27;23.30;;;12.00;99.90;;;;;;4968974;28;20229;-25
2021/12/16 05:10:22;;;;;;;32.83;23.37;;;12.00;99.90;;;;;;4980938;28;20211;-25
2021/12/16 05:12:56;;;;;;;32.70;23.80;;;12.00;99.90;;;;;;4981837;28;20214;-25
2021/12/16 05:15:30;;;;;;;33.00;22.90;;;12.00;99.90;;;;;;4969127;28;20582;-25
2021/12/16 05:18:07;;;;;;;34.57;22.87;;;12.00;99.90;;;;;;4968674;28;20297;-25
2021/12/16 05:20:43;;;;;;;34.67;23.57;;;12.00;99.90;;;;;;4981430;28;20209;-25
2021/12/16 05:26:16;;;;;;;31.10;22.97;;;12.00;99.90;;;;;;4986235;28;20280;-25
2021/12/16 05:28:54;;;;;;;33.93;23.77;;;12.00;99.90;;;;;;4968573;28;20225;-25
2021/12/16 05:31:25;;;;;;;32.47;22.97;;;12.00;99.90;;;;;;4969123;28;20705;-25
2021/12/16 05:33:55;;;;;;;30.60;22.20;;;12.00;99.90;;;;;;4981886;28;20214;-25
2021/12/16 05:36:22;;;;;;;33.43;22.93;;;12.00;99.90;;;;;;4973607;28;20229;-25
2021/12/16 05:38:52;;;;;;;30.63;23.63;;;12.00;99.90;;;;;;4965773;28;20298;-25
2021/12/16 05:41:23;;;;;;;32.90;24.07;;;12.00;99.90;;;;;;4971829;28;20222;-25
2021/12/16 05:43:52;;;;;;;31.93;22.53;;;12.00;99.90;;;;;;4984982;28;20206;-25
2021/12/16 05:46:22;;;;;;;38.73;25.63;;;12.00;99.90;;;;;;4968969;28;20209;-25
2021/12/16 05:48:51;;;;;;;34.87;23.53;;;12.00;99.90;;;;;;4972331;28;20241;-25
2021/12/16 05:51:30;;;;;;;35.63;23.60;;;12.00;99.90;;;;;;4983169;28;20602;-25
2021/12/16 05:54:01;;;;;;;32.30;23.80;;;12.00;99.90;;;;;;4980081;28;20220;-25
2021/12/16 05:56:29;;;;;;;30.63;22.27;;;12.00;99.90;;;;;;4973847;28;20626;-25
2021/12/16 05:58:56;;;;;;;31.37;22.37;;;12.00;99.90;;;;;;4989703;28;20328;-25
2021/12/16 06:01:28;;;;;;;33.87;24.53;;;12.00;99.90;;;;;;4980763;28;20274;-25
2021/12/16 06:03:59;;;;;;;32.63;23.43;;;12.00;99.90;;;;;;4974021;28;20206;-25
2021/12/16 06:06:30;;;;;;;32.50;23.67;;;12.00;99.90;;;;;;4984070;28;20241;-25
2021/12/16 06:08:59;;;;;;;33.10;24.43;;;12.00;99.90;;;;;;4981729;28;20214;-25
2021/12/16 06:11:30;;;;;;;33.57;23.73;;;12.00;99.90;;;;;;4978018;28;20589;-25
2021/12/16 06:14:22;;;;;;;31.43;23.73;;;12.00;99.90;;;;;;4979048;28;20211;-25
2021/12/16 06:22:51;;;;;;;30.47;22.83;;;12.00;99.90;;;;;;4984499;28;20316;-25
2021/12/16 06:28:09;;;;;;;34.13;24.10;;;11.90;99.90;;;;;;4981282;28;20254;-25
2021/12/16 06:30:43;;;;;;;36.03;25.37;;;11.90;99.90;;;;;;4986005;28;20640;-25
2021/12/16 06:33:13;;;;;;;35.13;23.83;;;11.90;99.90;;;;;;4983102;28;20225;-25
2021/12/16 06:35:56;;;;;;;32.60;23.37;;;11.90;99.90;;;;;;4984586;28;20232;-25
2021/12/16 06:38:24;;;;;;;35.30;23.53;;;11.90;99.90;;;;;;4978217;28;20637;-25
2021/12/16 06:40:52;;;;;;;34.03;23.80;;;11.90;99.90;;;;;;4981092;28;20214;-25
2021/12/16 06:43:23;;;;;;;35.57;24.40;;;11.90;99.90;;;;;;4980341;28;20716;-25
2021/12/16 06:45:53;;;;;;;34.47;23.27;;;11.90;99.90;;;;;;4986911;28;20209;-25
2021/12/16 06:48:26;;;;;;;35.90;23.83;;;12.00;99.90;;;;;;4986063;28;20232;-25
2021/12/16 06:51:01;;;;;;;35.53;23.67;;;11.90;99.90;;;;;;4986779;28;20198;-25
2021/12/16 06:53:49;;;;;;;33.57;23.87;;;12.00;99.90;;;;;;4986281;28;20213;-25
2021/12/16 06:56:28;;;;;;;32.63;23.47;;;12.00;99.90;;;;;;4972758;28;20261;-25
2021/12/16 06:59:09;;;;;;;36.77;24.80;;;11.90;99.90;;;;;;4972669;28;20301;-25
2021/12/16 07:01:41;;;;;;;37.07;24.17;;;12.00;99.90;;;;;;4969400;28;20241;-25
2021/12/16 07:04:12;;;;;;;38.13;24.50;;;12.00;99.90;;;;;;4974591;28;20253;-25
2021/12/16 07:06:40;;;;;;;30.70;22.77;;;12.00;99.90;;;;;;4977227;28;20231;-25
2021/12/16 07:09:21;;;;;;;33.40;23.30;;;12.00;99.90;;;;;;4970107;28;20751;-25
2021/12/16 07:11:52;;;;;;;31.83;23.63;;;12.00;99.90;;;;;;4983241;28;20626;-25
2021/12/16 07:14:24;;;;;;;33.23;23.67;;;12.00;99.90;;;;;;4978232;28;20215;-25
2021/12/16 07:16:57;;;;;;;37.07;24.40;;;12.00;99.90;;;;;;4977181;28;20206;-25
2021/12/16 07:19:24;;;;;;;35.20;24.57;;;12.00;99.90;;;;;;4970891;28;20751;-25
2021/12/16 07:21:51;;;;;;;32.50;24.20;;;12.00;99.90;;;;;;4967638;28;20309;-25
2021/12/16 07:24:19;;;;;;;33.00;24.33;;;12.00;99.90;;;;;;4967484;28;20319;-25
2021/12/16 07:26:54;;;;;;;32.83;24.30;;;12.00;99.90;;;;;;4971511;28;21021;-25
2021/12/16 07:29:21;;;;;;;36.63;25.17;;;12.00;99.90;;;;;;4970490;28;20238;-25
2021/12/16 07:31:49;;;;;;;30.57;23.40;;;12.00;99.90;;;;;;4990443;28;20231;-25
2021/12/16 07:34:16;;;;;;;35.97;24.80;;;12.00;99.90;;;;;;4975240;28;20236;-26
2021/12/16 07:36:46;;;;;;;33.30;24.53;;;12.00;99.90;;;;;;4972261;28;20313;-25
2021/12/16 07:39:26;;;;;;;35.33;25.57;;;12.00;99.90;;;;;;4970035;28;20234;-26
2021/12/16 07:41:55;;;;;;;35.10;24.43;;;12.00;99.90;;;;;;4971761;28;20230;-25
2021/12/16 07:44:28;;;;;;;35.10;24.87;;;12.00;99.90;;;;;;4976908;28;20602;-25
2021/12/16 07:46:59;;;;;;;37.07;26.13;;;12.00;99.90;;;;;;4979967;28;20313;-26
2021/12/16 07:49:32;;;;;;;35.70;25.50;;;12.00;99.90;;;;;;4980339;28;20230;-26
2021/12/16 07:52:00;;;;;;;38.77;25.27;;;12.00;99.90;;;;;;4976866;28;20783;-25
2021/12/16 07:54:28;;;;;;;39.77;26.07;;;12.00;99.90;;;;;;4980169;28;20207;-25
2021/12/16 07:56:57;;;;;;;34.60;25.13;;;12.00;99.90;;;;;;4973455;28;20219;-26
2021/12/16 07:59:28;;;;;;;35.73;24.97;;;12.00;99.90;;;;;;4969460;28;20229;-25
2021/12/16 08:01:56;;;;;;;35.37;24.03;;;12.00;99.90;;;;;;4972929;28;20226;-25
2021/12/16 08:04:28;;;;;;;36.03;24.37;;;12.00;99.90;;;;;;4973588;28;20451;-25
2021/12/16 08:07:04;;;;;;;35.23;24.00;;;12.00;99.90;;;;;;4968253;28;20257;-25
2021/12/16 08:09:38;;;;;;;33.27;24.07;;;12.00;99.90;;;;;;4979350;28;20234;-25
2021/12/16 08:12:05;;;;;;;33.87;24.27;;;12.00;99.90;;;;;;4980251;28;20313;-25
2021/12/16 08:14:33;;;;;;;32.97;23.83;;;12.00;99.90;;;;;;4975320;28;20325;-25
2021/12/16 08:17:00;;;;;;;32.40;24.00;;;12.10;99.90;;;;;;4976753;28;20693;-26
2021/12/16 08:19:30;;;;;;;34.73;24.40;;;12.10;99.90;;;;;;4971208;28;20240;-25
2021/12/16 08:22:00;;;;;;;38.23;25.27;;;12.10;99.90;;;;;;4980431;28;20226;-25
2021/12/16 08:24:27;;;;;;;33.87;24.37;;;12.10;99.90;;;;;;4977317;28;20225;-26
2021/12/16 08:26:54;;;;;;;38.27;24.23;;;12.10;99.90;;;;;;4980303;28;20703;-26
2021/12/16 08:29:24;;;;;;;41.47;24.87;;;12.10;99.90;;;;;;4976236;28;20226;-26
2021/12/16 08:31:52;;;;;;;34.80;24.93;;;12.10;99.90;;;;;;4984393;28;20631;-25
2021/12/16 08:34:20;;;;;;;35.17;24.67;;;12.10;99.90;;;;;;4986446;28;20198;-25
2021/12/16 08:36:49;;;;;;;37.57;25.73;;;12.10;99.90;;;;;;4973148;28;20214;-26
2021/12/16 08:39:17;;;;;;;36.77;24.17;;;12.10;99.90;;;;;;4982967;28;20204;-25
2021/12/16 08:41:56;;;;;;;37.57;25.13;;;12.10;99.90;;;;;;4972058;28;20597;-26
2021/12/16 08:44:25;;;;;;;33.43;24.27;;;12.10;99.90;;;;;;4979271;28;20199;-25
2021/12/16 08:47:00;;;;;;;34.63;23.53;;;12.10;99.90;;;;;;4983384;28;20216;-25
2021/12/16 08:49:29;;;;;;;33.53;24.20;;;12.20;99.90;;;;;;4986542;28;20652;-25
2021/12/16 08:51:59;;;;;;;34.30;24.93;;;12.20;99.90;;;;;;4986882;28;20783;-25
2021/12/16 08:54:29;;;;;;;34.60;23.97;;;12.20;99.90;;;;;;4983051;28;20210;-25
2021/12/16 08:56:58;;;;;;;34.73;24.20;;;12.20;99.90;;;;;;4973260;28;20398;-26
2021/12/16 08:59:25;;;;;;;35.50;25.03;;;12.20;99.90;;;;;;4977937;28;20650;-26
2021/12/16 09:02:00;;;;;;;37.10;24.80;;;12.20;99.90;;;;;;4981937;28;20661;-25
2021/12/16 09:04:32;;;;;;;39.83;25.27;;;12.20;99.90;;;;;;4984285;28;20238;-25
2021/12/16 09:07:03;;;;;;;40.37;25.23;;;12.20;99.90;;;;;;4967410;28;20226;-26
2021/12/16 09:09:35;;;;;;;36.30;25.43;;;12.30;99.90;;;;;;4976798;28;20236;-26
2021/12/16 09:12:12;;;;;;;38.07;24.20;;;12.30;99.90;;;;;;4977212;28;20233;-25
2021/12/16 09:14:43;;;;;;;35.47;24.43;;;12.30;99.90;;;;;;4980501;28;20233;-25
2021/12/16 09:17:14;;;;;;;35.57;24.90;;;12.30;99.90;;;;;;4981099;28;20221;-25
2021/12/16 09:19:48;;;;;;;32.93;23.07;;;12.30;99.90;;;;;;4976383;28;20727;-25
2021/12/16 09:22:17;;;;;;;35.27;25.20;;;12.30;99.90;;;;;;4969012;28;20293;-26
2021/12/16 09:24:50;;;;;;;36.33;24.30;;;12.30;99.90;;;;;;4974464;28;20238;-25
2021/12/16 09:27:18;;;;;;;35.07;23.90;;;12.40;99.90;;;;;;4979090;28;20752;-26
2021/12/16 09:29:46;;;;;;;36.20;25.20;;;12.40;99.90;;;;;;4984022;28;20701;-25
2021/12/16 09:32:15;;;;;;;56.30;28.40;;;12.40;99.90;;;;;;4974306;28;20304;-25
2021/12/16 09:34:44;;;;;;;69.37;29.57;;;12.40;99.90;;;;;;4971223;28;20226;-26
2021/12/16 09:37:12;;;;;;;53.53;28.80;;;12.50;99.90;;;;;;4973267;28;20264;-26
2021/12/16 09:39:40;;;;;;;48.00;27.23;;;12.50;99.90;;;;;;4980859;28;20217;-26
2021/12/16 09:42:09;;;;;;;39.60;25.43;;;12.50;99.90;;;;;;4986123;28;20236;-26
2021/12/16 09:44:38;;;;;;;34.53;24.23;;;12.50;99.90;;;;;;4986578;28;20232;-26
2021/12/16 09:47:11;;;;;;;37.00;24.93;;;12.50;99.90;;;;;;4970611;28;20233;-25
2021/12/16 09:49:39;;;;;;;37.37;25.33;;;12.60;99.90;;;;;;4983225;28;20701;-26
2021/12/16 09:52:10;;;;;;;36.47;25.00;;;12.60;99.90;;;;;;4969311;28;20253;-26
2021/12/16 09:54:40;;;;;;;50.13;27.83;;;12.60;99.90;;;;;;4987252;28;20221;-26
2021/12/16 09:57:08;;;;;;;62.77;28.00;;;12.60;99.90;;;;;;4981160;28;20606;-25
2021/12/16 09:59:38;;;;;;;37.87;25.27;;;12.70;99.90;;;;;;4982640;28;20237;-25
2021/12/16 10:02:12;;;;;;;34.00;24.27;;;12.70;99.90;;;;;;4972431;28;20346;-25
2021/12/16 10:04:41;;;;;;;34.90;24.27;;;12.70;99.90;;;;;;4977076;28;20376;-26
2021/12/16 10:07:14;;;;;;;35.27;24.57;;;12.80;99.90;;;;;;4978691;28;20338;-25
2021/12/16 10:09:43;;;;;;;36.00;25.37;;;12.80;99.90;;;;;;4984081;28;20241;-25
2021/12/16 10:12:15;;;;;;;34.17;24.33;;;12.80;99.90;;;;;;4976834;28;20226;-26
2021/12/16 10:17:32;;;;;;;80.60;32.97;;;12.90;99.90;;;;;;4980388;28;20561;-26
2021/12/16 10:20:20;;;;;;;87.40;31.60;;;12.90;99.90;;;;;;4976267;28;20692;-25
2021/12/16 10:23:04;;;;;;;97.17;36.40;;;12.90;99.90;;;;;;4968029;28;20625;-25
2021/12/16 10:25:38;;;;;;;107.67;37.33;;;13.00;99.90;;;;;;4976902;28;20707;-26
2021/12/16 10:28:11;;;;;;;60.10;30.27;;;13.00;99.90;;;;;;4978136;28;20270;-25
2021/12/16 10:30:44;;;;;;;54.13;28.03;;;13.00;99.90;;;;;;4977779;28;20233;-26
2021/12/16 10:33:14;;;;;;;51.63;28.47;;;13.00;99.90;;;;;;4978431;28;20219;-26
2021/12/16 10:35:47;;;;;;;38.93;26.33;;;13.00;99.90;;;;;;4980294;28;20265;-25
2021/12/16 10:38:18;;;;;;;41.80;26.70;;;13.10;99.90;;;;;;4973652;28;20320;-25
2021/12/16 10:40:50;;;;;;;77.03;30.53;;;13.10;99.90;;;;;;4978159;28;20225;-25
2021/12/16 10:43:30;;;;;;;49.03;26.50;;;13.10;99.90;;;;;;4980747;28;20266;-25
2021/12/16 10:46:09;;;;;;;42.17;25.93;;;13.10;99.90;;;;;;4973275;28;20231;-26
2021/12/16 10:49:03;;;;;;;37.40;24.83;;;13.10;99.90;;;;;;4972527;28;20780;-26
2021/12/16 10:51:37;;;;;;;35.00;24.33;;;13.20;99.90;;;;;;4984084;28;20238;-25
2021/12/16 10:54:07;;;;;;;35.43;25.90;;;13.20;99.90;;;;;;4985455;28;20718;-25
2021/12/16 10:56:45;;;;;;;38.17;25.80;;;13.20;99.90;;;;;;4996315;28;20221;-26
2021/12/16 10:59:18;;;;;;;35.30;24.60;;;13.20;99.90;;;;;;4971964;28;20575;-26
2021/12/16 11:01:58;;;;;;;37.10;24.67;;;13.20;99.90;;;;;;4970969;28;20321;-26
2021/12/16 11:04:48;;;;;;;34.77;24.63;;;13.30;99.90;;;;;;4987276;28;20692;-26
2021/12/16 11:07:26;;;;;;;35.33;26.60;;;13.30;99.90;;;;;;4968519;28;20639;-25
2021/12/16 11:10:22;;;;;;;36.83;25.87;;;13.30;99.90;;;;;;4969783;28;20237;-26
2021/12/16 11:12:51;;;;;;;33.20;24.93;;;13.30;99.90;;;;;;4973644;28;20573;-26
2021/12/16 11:15:30;;;;;;;40.53;27.07;;;13.20;99.90;;;;;;4983474;28;20685;-25
2021/12/16 11:18:02;;;;;;;36.50;25.23;;;13.20;99.90;;;;;;4974174;28;20227;-25
2021/12/16 11:20:36;;;;;;;35.10;25.20;;;13.20;99.90;;;;;;4980438;28;20245;-25
2021/12/16 11:23:11;;;;;;;38.23;26.00;;;13.20;99.90;;;;;;4972607;28;20731;-25
2021/12/16 11:25:41;;;;;;;36.30;26.03;;;13.20;99.90;;;;;;4989603;28;20226;-26
2021/12/16 11:28:17;;;;;;;33.87;24.90;;;13.20;99.90;;;;;;4980432;28;20234;-26
2021/12/16 11:30:52;;;;;;;44.60;27.87;;;13.20;99.90;;;;;;4975954;28;20227;-25
2021/12/16 11:33:31;;;;;;;38.93;26.47;;;13.20;99.90;;;;;;4981476;28;20234;-26
2021/12/16 11:36:11;;;;;;;36.93;25.63;;;13.20;99.90;;;;;;4977206;28;20638;-25
2021/12/16 11:39:01;;;;;;;38.53;26.40;;;13.20;99.90;;;;;;4971460;28;20229;-26
2021/12/16 11:41:40;;;;;;;39.27;25.93;;;13.20;99.90;;;;;;4977779;28;20230;-25
2021/12/16 11:44:22;;;;;;;34.40;25.93;;;13.20;99.90;;;;;;4974920;28;20677;-25
2021/12/16 11:46:58;;;;;;;34.77;25.57;;;13.20;99.90;;;;;;4975205;28;20300;-25
2021/12/16 11:49:44;;;;;;;36.87;26.60;;;13.20;99.90;;;;;;4979095;28;20330;-26
2021/12/16 11:52:18;;;;;;;36.43;26.37;;;13.20;99.90;;;;;;4972534;28;20241;-25
2021/12/16 11:54:54;;;;;;;34.43;25.53;;;13.20;99.90;;;;;;4967974;28;20321;-25
2021/12/16 11:57:26;;;;;;;35.97;25.40;;;13.30;99.90;;;;;;4981576;28;20598;-25
2021/12/16 12:00:00;;;;;;;32.57;24.30;;;13.30;99.90;;;;;;4969449;28;20217;-25
2021/12/16 12:02:35;;;;;;;36.60;26.23;;;13.30;99.90;;;;;;4970464;28;20202;-25
2021/12/16 12:05:23;;;;;;;38.00;26.10;;;13.30;99.90;;;;;;4979330;28;20705;-24
2021/12/16 12:08:02;;;;;;;32.90;25.13;;;13.30;99.90;;;;;;4971573;28;20681;-24
2021/12/16 12:10:36;;;;;;;42.17;27.70;;;13.30;99.90;;;;;;4971132;28;20230;-24
2021/12/16 12:13:07;;;;;;;35.07;25.70;;;13.30;99.90;;;;;;4968792;28;20222;-24
2021/12/16 12:15:53;;;;;;;36.03;26.40;;;13.30;99.90;;;;;;4979788;28;20254;-24
2021/12/16 12:18:39;;;;;;;28.97;23.50;;;13.40;99.90;;;;;;4973935;28;20602;-24
2021/12/16 12:21:55;;;;;;;29.83;24.13;;;13.40;99.90;;;;;;4984944;28;20214;-24
2021/12/16 12:24:34;;;;;;;32.37;23.90;;;13.40;99.90;;;;;;4964098;28;20199;-24
2021/12/16 12:27:05;;;;;;;31.97;24.20;;;13.40;99.90;;;;;;4981318;28;20216;-24
2021/12/16 12:29:37;;;;;;;33.63;24.73;;;13.50;99.90;;;;;;4977767;28;20603;-25
2021/12/16 12:32:14;;;;;;;34.80;25.13;;;13.40;99.90;;;;;;4978908;28;20764;-26
2021/12/16 12:34:49;;;;;;;32.33;23.73;;;13.50;99.90;;;;;;4983966;28;20687;-26
2021/12/16 12:37:20;;;;;;;33.27;24.27;;;13.50;99.90;;;;;;4969793;28;20233;-26
2021/12/16 12:39:54;;;;;;;32.17;23.77;;;13.50;99.90;;;;;;4966740;28;20223;-25
2021/12/16 12:42:22;;;;;;;35.70;24.53;;;13.60;99.90;;;;;;4982120;28;20682;-26
2021/12/16 12:44:49;;;;;;;33.80;23.97;;;13.60;99.90;;;;;;4976718;28;20234;-26
2021/12/16 12:47:26;;;;;;;30.73;22.97;;;13.60;99.90;;;;;;4968526;28;20253;-24
2021/12/16 12:50:05;;;;;;;30.20;22.37;;;13.60;99.90;;;;;;4967711;28;20669;-24
2021/12/16 12:52:34;;;;;;;31.97;23.53;;;13.60;99.90;;;;;;4977136;28;20242;-24
2021/12/16 12:55:13;;;;;;;31.97;24.27;;;13.60;99.90;;;;;;4985897;28;20202;-24
2021/12/16 12:57:42;;;;;;;31.70;23.20;;;13.60;99.90;;;;;;4982706;28;20210;-24
2021/12/16 13:00:30;;;;;;;32.57;23.77;;;13.60;99.90;;;;;;4968628;28;20262;-24
2021/12/16 13:03:01;;;;;;;31.73;22.03;;;13.70;99.90;;;;;;4975186;28;20211;-24
2021/12/16 13:05:30;;;;;;;28.97;22.20;;;13.70;99.90;;;;;;4971987;28;20206;-24
2021/12/16 13:08:03;;;;;;;29.13;21.83;;;13.70;99.90;;;;;;4978849;28;20257;-24
2021/12/16 13:10:48;;;;;;;29.37;22.03;;;13.70;99.90;;;;;;4970185;28;20446;-24
2021/12/16 13:13:32;;;;;;;31.30;23.23;;;13.70;99.90;;;;;;4974885;28;20202;-24
2021/12/16 13:27:45;;;;;;;43.57;22.93;;;13.70;99.90;;;;;;4970864;28;20717;-24
2021/12/16 13:30:26;;;;;;;37.73;22.43;;;13.70;99.90;;;;;;4971950;28;20234;-24
2021/12/16 13:33:24;;;;;;;32.07;20.47;;;13.70;99.90;;;;;;4971858;28;20222;-24
2021/12/16 13:36:04;;;;;;;26.90;19.90;;;13.60;99.90;;;;;;4984032;28;20583;-25
2021/12/16 13:38:44;;;;;;;26.40;19.00;;;13.60;99.90;;;;;;4973551;28;20238;-24
2021/12/16 13:41:22;;;;;;;24.67;18.20;;;13.60;99.90;;;;;;4984440;28;20225;-24
2021/12/16 13:43:55;;;;;;;28.63;20.37;;;13.60;99.90;;;;;;4974164;28;20234;-24
2021/12/16 13:46:37;;;;;;;28.57;19.57;;;13.60;99.90;;;;;;4983745;28;20226;-24
2021/12/16 14:06:39;;;;;;;26.67;19.43;;;13.60;99.90;;;;;;4968946;28;20227;-24
2021/12/16 14:09:19;;;;;;;29.17;20.57;;;13.60;99.90;;;;;;4966232;28;20753;-24
2021/12/16 14:13:03;;;;;;;25.87;19.40;;;13.60;99.90;;;;;;4977521;28;20227;-24
2021/12/16 14:23:24;;;;;;;25.50;18.63;;;13.60;99.90;;;;;;4984929;28;20670;-24
2021/12/16 14:34:57;;;;;;;25.50;17.80;;;13.60;99.90;;;;;;4991000;28;20265;-24
2021/12/16 14:37:32;;;;;;;25.60;17.97;;;13.60;99.90;;;;;;4970696;28;20241;-24
2021/12/16 14:50:35;;;;;;;21.73;15.83;;;13.60;99.90;;;;;;4981681;28;20238;-26
2021/12/16 14:53:16;;;;;;;22.83;15.90;;;13.60;99.90;;;;;;4977322;28;20238;-26
2021/12/16 14:55:44;;;;;;;20.60;16.07;;;13.60;99.90;;;;;;4978636;28;20223;-25
2021/12/16 14:58:13;;;;;;;20.03;15.33;;;13.60;99.90;;;;;;4971104;28;20285;-25
2021/12/16 15:00:46;;;;;;;22.63;15.93;;;13.50;99.90;;;;;;4970678;28;20234;-25
2021/12/16 15:03:21;;;;;;;25.80;17.03;;;13.50;99.90;;;;;;4973723;28;20657;-25
2021/12/16 15:05:56;;;;;;;24.33;16.37;;;13.50;99.90;;;;;;4976941;28;20245;-26
2021/12/16 15:08:52;;;;;;;26.90;17.73;;;13.50;99.90;;;;;;4982406;28;20724;-25
2021/12/16 15:11:31;;;;;;;24.37;17.27;;;13.50;99.90;;;;;;4970369;28;20274;-25
2021/12/16 15:14:05;;;;;;;25.63;16.60;;;13.40;99.90;;;;;;4978069;28;20236;-25
2021/12/16 15:39:27;;;;;;;28.63;18.47;;;13.00;99.90;;;;;;4968758;28;20265;-25
2021/12/16 15:42:47;;;;;;;30.87;19.67;;;13.00;99.90;;;;;;4968357;28;20591;-26
2021/12/16 15:44:20;;;;;;;27.33;19.00;;;12.90;99.90;;;;;;4973312;28;20294;-26
2021/12/16 15:46:50;;;;;;;31.37;19.47;;;12.80;99.90;;;;;;4983827;28;20214;-26
2021/12/16 15:49:21;;;;;;;32.20;20.77;;;12.80;99.90;;;;;;4977340;28;20206;-26
2021/12/16 15:51:53;;;;;;;34.27;20.30;;;12.80;99.90;;;;;;4980738;28;20245;-24
2021/12/16 15:54:22;;;;;;;31.17;19.10;;;12.70;99.90;;;;;;4977139;28;20203;-25
2021/12/16 15:56:52;;;;;;;31.50;20.57;;;12.70;99.90;;;;;;4973033;28;20223;-24
2021/12/16 15:59:28;;;;;;;30.43;20.77;;;12.70;99.90;;;;;;4973164;28;20194;-24
2021/12/16 16:01:59;;;;;;;29.97;19.17;;;12.60;99.90;;;;;;4976565;28;20654;-24
2021/12/16 16:04:31;;;;;;;28.03;19.63;;;12.60;99.90;;;;;;4971534;28;20223;-24
2021/12/16 16:07:12;;;;;;;30.77;19.90;;;12.60;99.90;;;;;;4977833;28;20207;-24
2021/12/16 16:09:44;;;;;;;33.17;20.40;;;12.50;99.90;;;;;;4967821;28;20313;-24
2021/12/16 16:12:18;;;;;;;34.77;22.30;;;12.50;99.90;;;;;;4970698;28;20226;-24
2021/12/16 16:14:49;;;;;;;30.30;21.47;;;12.40;99.90;;;;;;4969008;28;20222;-24
2021/12/16 16:17:21;;;;;;;35.03;21.73;;;12.40;99.90;;;;;;4970460;28;20209;-24
2021/12/16 16:19:50;;;;;;;32.90;21.10;;;12.30;99.90;;;;;;4973363;28;20206;-24
2021/12/16 16:22:18;;;;;;;33.33;22.53;;;12.30;99.90;;;;;;4967053;28;20367;-24
2021/12/16 16:24:52;;;;;;;32.17;20.83;;;12.20;99.90;;;;;;4979371;28;20623;-24
2021/12/16 16:27:29;;;;;;;28.90;21.43;;;12.20;99.90;;;;;;4976079;28;20202;-24
2021/12/16 16:29:59;;;;;;;29.40;19.83;;;12.20;99.90;;;;;;4979819;28;20300;-24
2021/12/16 16:33:07;;;;;;;33.00;22.30;;;12.10;99.90;;;;;;4972573;28;20199;-24
2021/12/16 16:35:43;;;;;;;34.53;22.23;;;12.10;99.90;;;;;;4999867;28;20236;-24
2021/12/16 16:38:22;;;;;;;31.63;21.27;;;12.00;99.90;;;;;;4979433;28;20210;-24
2021/12/16 16:40:52;;;;;;;31.77;20.83;;;12.00;99.90;;;;;;4974519;28;20582;-24
2021/12/16 16:43:27;;;;;;;29.13;20.97;;;11.90;99.90;;;;;;4975066;28;20344;-24